Decoded Metar for LIQN (RIETI in ITALY) (IATA:N/A) | Meteo·Mobile Aviation Weather
aviador You're here:

LIQN Decoded Metar

RIETI in ITALY
Report Time2018-08-21 11:50:00
UTC Time2018-08-21 12:13:01
Flight Rules vfr VFR
Wind340° at 05 kt
W.Decomp.*RWY 34: 5.0 kt HW 0.2 kt LCW
W.Rank340° ranks 17
Current wind is below 340° avg. (6.5)
Visibility9999 m
Phenomena:thunderstorm
Clouds:Few CB 060 Hf
Expected CloudBase > 4,800 ft AGL from Temp-Dew spread
CeilingNone
Temp28°C (ISA +16)
Dew Point16°C (48% RH)
Heat Index28.3°C
QNH1015 hPa
Density Alt3,238 ft
Elevation1,276 ft
Report Wrong Elevation
Raw Report
LIQN 211150Z 34005KT 9999 TS FEW060CB 28/16 Q1015=

Extra information for LIQN:More info

Metar Taf Metar & Taf Last 4 Metars F.Rules Stats Wind Profile Meteogram Temp Stats Airport Information Weather charts Add Link Nearby VenuesMetar ALERT Operation Metar Decoded Social comments